Al Hillah, Iraq
Current Conditions -  °F | °C
As of 2:00 AM on Thursday 23 Oct 2014 (Local Time) from ORNI Reporting Station
Smoke Smoke  
Wind Chill: 63°   Ceiling: Unl
Heat Index: 63°   Visibility: 3mi
Dew Point: 48°   Wind: 0mph
Humidity: 59%   Direction: NA
Pressure: 30.09"   Gusts: NA
Location:  32.48°N, 44.46°E
Report Text: ORNI 222300Z 00000KT 5000 FU NSC 17/09 Q1019 NOSIG
Loading
Personal Weather Stations






























Interactive Weather Map
Tropical Storm Tracking
New forecast layout! Learn more

10-Day Weather Forecast

Advertisements
Track Severe Weather on mobile